Time;durP1;ratioP1;P1;durP2;ratioP2;P2;SDS_P1;SDS_P2;PMS_P1;PMS_P2;Temp;Humidity;BMP_temperature;BMP_pressure;BME280_temperature;BME280_humidity;BME280_pressure;Samples;Min_cycle;Max_cycle;Signal;HPM_P1;HPM_P2
2022/07/19 00:00:14;;;;;;;6.77;4.33;;;;;;;16.25;100.00;96900.03;5065734;28;20483;-73
2022/07/19 00:02:42;;;;;;;10.10;4.50;;;;;;;16.03;100.00;96900.69;5071268;28;21031;-73
2022/07/19 00:05:11;;;;;;;10.57;4.10;;;;;;;15.85;100.00;96869.03;5047915;28;20498;-73
2022/07/19 00:07:38;;;;;;;4.57;3.50;;;;;;;15.70;100.00;96888.50;5071176;28;20449;-73
2022/07/19 00:10:08;;;;;;;7.10;3.90;;;;;;;15.72;100.00;96888.91;5070416;28;20448;-73
2022/07/19 00:12:36;;;;;;;8.83;4.00;;;;;;;15.56;100.00;96896.13;5070961;28;20526;-73
2022/07/19 00:15:08;;;;;;;9.20;4.77;;;;;;;15.56;100.00;96880.13;5066428;28;20545;-73
2022/07/19 00:17:38;;;;;;;8.23;4.10;;;;;;;15.45;100.00;96895.09;5075810;28;20487;-73
2022/07/19 00:20:05;;;;;;;7.60;4.07;;;;;;;15.43;100.00;96870.66;5077223;28;20436;-73
2022/07/19 00:22:32;;;;;;;6.10;4.00;;;;;;;15.43;100.00;96878.66;5070749;28;20437;-73
2022/07/19 00:24:59;;;;;;;5.90;3.53;;;;;;;15.68;100.00;96893.41;5068811;28;20506;-73
2022/07/19 00:27:25;;;;;;;6.60;4.00;;;;;;;15.64;100.00;96873.88;5054124;28;20436;-73
2022/07/19 00:29:52;;;;;;;5.37;4.13;;;;;;;15.95;100.00;96897.84;5078480;28;20533;-73
2022/07/19 00:32:19;;;;;;;5.10;4.40;;;;;;;15.85;100.00;96861.03;5075863;28;20522;-73
2022/07/19 00:34:45;;;;;;;8.33;4.00;;;;;;;15.86;100.00;96888.47;5063375;28;20456;-73
2022/07/19 00:37:12;;;;;;;4.50;4.10;;;;;;;15.65;100.00;96873.53;5072126;28;20828;-73
2022/07/19 00:39:39;;;;;;;17.13;4.60;;;;;;;15.52;100.00;96882.72;5063218;28;20437;-73
2022/07/19 00:42:05;;;;;;;12.07;5.00;;;;;;;15.53;100.00;96902.16;5069116;28;20440;-73
2022/07/19 00:44:32;;;;;;;11.77;4.57;;;;;;;15.28;100.00;96874.88;5078695;28;20477;-73
2022/07/19 00:46:59;;;;;;;3.90;3.60;;;;;;;14.87;100.00;96892.84;5069483;28;20456;-73
2022/07/19 00:49:26;;;;;;;5.73;4.20;;;;;;;14.65;100.00;96874.75;5085821;28;20500;-73
2022/07/19 00:51:53;;;;;;;5.93;4.27;;;;;;;15.06;100.00;96902.84;5053695;28;20464;-73
2022/07/19 00:54:22;;;;;;;7.00;4.80;;;;;;;15.01;100.00;96897.78;5051640;28;20950;-73
2022/07/19 00:56:50;;;;;;;7.73;3.97;;;;;;;15.37;100.00;96905.59;5067012;28;20433;-73
2022/07/19 00:59:18;;;;;;;4.90;3.80;;;;;;;15.43;100.00;96905.31;5067199;28;20497;-73
2022/07/19 01:01:45;;;;;;;4.70;3.40;;;;;;;14.77;100.00;96901.31;5070113;28;20441;-73
2022/07/19 01:04:12;;;;;;;7.83;3.80;;;;;;;14.93;100.00;96880.06;5077222;28;20564;-73
2022/07/19 01:06:41;;;;;;;15.23;4.53;;;;;;;14.73;100.00;96884.47;5070134;28;20433;-73
2022/07/19 01:09:07;;;;;;;4.80;3.90;;;;;;;14.84;100.00;96906.84;5069498;28;21045;-73
2022/07/19 01:11:34;;;;;;;6.10;3.70;;;;;;;14.80;100.00;96874.00;5057387;28;21071;-73
2022/07/19 01:14:01;;;;;;;5.50;3.77;;;;;;;14.42;100.00;96879.75;5052649;28;20440;-73
2022/07/19 01:16:28;;;;;;;4.87;4.40;;;;;;;14.15;100.00;96871.41;5053371;28;20442;-73
2022/07/19 01:18:55;;;;;;;6.90;4.07;;;;;;;14.39;100.00;96872.47;5053172;28;20464;-73
2022/07/19 01:21:24;;;;;;;3.80;3.50;;;;;;;14.38;100.00;96889.53;5069376;28;20448;-73
2022/07/19 01:23:51;;;;;;;7.77;5.30;;;;;;;14.47;100.00;96879.56;5071145;28;20431;-73
2022/07/19 01:26:18;;;;;;;7.10;3.83;;;;;;;14.55;100.00;96905.25;5060901;28;20451;-73
2022/07/19 01:28:46;;;;;;;7.73;4.50;;;;;;;14.32;100.00;96885.56;5069024;28;20577;-73
2022/07/19 01:31:13;;;;;;;5.50;3.97;;;;;;;14.44;100.00;96902.31;5085562;28;20878;-73
2022/07/19 01:33:44;;;;;;;5.50;4.17;;;;;;;14.62;100.00;96902.81;5086626;28;20437;-73
2022/07/19 01:36:11;;;;;;;7.13;4.47;;;;;;;14.62;100.00;96897.50;5068695;28;20507;-73
2022/07/19 01:38:38;;;;;;;3.40;3.10;;;;;;;14.56;100.00;96909.50;5086470;28;20492;-73
2022/07/19 01:41:07;;;;;;;5.47;3.93;;;;;;;14.66;100.00;96909.00;5066971;28;20433;-73
2022/07/19 01:43:34;;;;;;;5.87;4.33;;;;;;;14.34;100.00;96897.44;5069776;28;20932;-73
2022/07/19 01:46:02;;;;;;;4.60;4.03;;;;;;;14.71;100.00;96913.34;5068781;28;20533;-73
2022/07/19 01:48:29;;;;;;;4.53;4.13;;;;;;;14.49;100.00;96882.66;5061423;28;21030;-73
2022/07/19 01:50:56;;;;;;;5.13;4.60;;;;;;;14.55;100.00;96891.19;5066962;28;20467;-73
2022/07/19 01:53:23;;;;;;;9.83;4.20;;;;;;;14.49;100.00;96886.09;5070602;28;20428;-73
2022/07/19 01:55:49;;;;;;;4.73;3.60;;;;;;;14.60;100.00;96885.63;5056178;28;20960;-73
2022/07/19 01:58:16;;;;;;;10.83;4.40;;;;;;;14.54;100.00;96906.38;5069361;28;20498;-73
2022/07/19 02:00:43;;;;;;;8.70;5.20;;;;;;;14.46;100.00;96883.34;5069469;28;20796;-73
2022/07/19 02:03:09;;;;;;;13.57;4.40;;;;;;;14.43;100.00;96890.09;5069674;28;20464;-73
2022/07/19 02:05:36;;;;;;;9.17;5.00;;;;;;;14.40;100.00;96864.16;5048701;28;20449;-73
2022/07/19 02:08:03;;;;;;;8.13;4.97;;;;;;;14.65;100.00;96904.78;5068815;28;20563;-73
2022/07/19 02:10:30;;;;;;;13.70;5.13;;;;;;;14.29;100.00;96891.53;5079961;28;20489;-73
2022/07/19 02:12:57;;;;;;;9.30;4.30;;;;;;;14.28;100.00;96885.44;5070328;28;20440;-73
2022/07/19 02:15:24;;;;;;;10.93;6.20;;;;;;;14.29;100.00;96870.25;5085306;28;20460;-73
2022/07/19 02:17:51;;;;;;;10.77;4.90;;;;;;;14.35;100.00;96893.66;5052717;28;20547;-73
2022/07/19 02:20:18;;;;;;;7.67;4.50;;;;;;;14.42;100.00;96901.84;5051369;28;20980;-73
2022/07/19 02:22:45;;;;;;;8.47;5.47;;;;;;;14.51;100.00;96901.72;5086078;28;20495;-73
2022/07/19 02:25:12;;;;;;;5.10;4.70;;;;;;;14.20;100.00;96908.44;5063484;28;20445;-73
2022/07/19 02:27:40;;;;;;;14.83;4.80;;;;;;;13.93;100.00;96866.56;5072796;28;20512;-73
2022/07/19 02:30:09;;;;;;;12.90;6.03;;;;;;;13.92;100.00;96875.66;5086885;28;20508;-73
2022/07/19 02:32:36;;;;;;;15.90;5.07;;;;;;;14.17;100.00;96908.31;5078071;28;20435;-73
2022/07/19 02:35:04;;;;;;;9.80;5.60;;;;;;;13.84;100.00;96887.94;5083591;28;21037;-73
2022/07/19 02:37:30;;;;;;;11.80;5.73;;;;;;;13.47;100.00;96876.53;5049224;28;20461;-73
2022/07/19 02:39:57;;;;;;;12.00;5.07;;;;;;;13.63;100.00;96862.63;5071383;28;20901;-73
2022/07/19 02:42:23;;;;;;;9.60;4.47;;;;;;;14.00;100.00;96889.94;5062781;28;20455;-73
2022/07/19 02:44:50;;;;;;;16.57;5.40;;;;;;;13.98;100.00;96911.53;5071640;28;20971;-72
2022/07/19 02:47:17;;;;;;;10.13;5.37;;;;;;;13.24;100.00;96915.25;5061147;28;20432;-72
2022/07/19 02:49:43;;;;;;;14.07;5.50;;;;;;;13.18;100.00;96892.63;5056169;28;20435;-72
2022/07/19 02:52:10;;;;;;;10.53;6.17;;;;;;;13.60;100.00;96899.34;5071641;28;20794;-72
2022/07/19 02:54:38;;;;;;;11.10;6.47;;;;;;;13.76;100.00;96917.31;5072862;28;20436;-72
2022/07/19 02:57:05;;;;;;;15.30;5.90;;;;;;;13.59;100.00;96912.97;5071772;28;20445;-72
2022/07/19 02:59:31;;;;;;;10.37;5.13;;;;;;;13.84;100.00;96924.38;5072531;28;20456;-72
2022/07/19 03:01:58;;;;;;;8.47;5.43;;;;;;;13.63;100.00;96915.75;5088162;28;20465;-72
2022/07/19 03:04:25;;;;;;;7.10;5.13;;;;;;;12.93;100.00;96894.41;5054879;28;20468;-72
2022/07/19 03:06:52;;;;;;;8.93;5.23;;;;;;;12.92;100.00;96903.50;5066390;28;20489;-72
2022/07/19 03:09:19;;;;;;;14.33;4.77;;;;;;;13.00;100.00;96868.91;5055767;28;20454;-72
2022/07/19 03:11:47;;;;;;;13.53;5.53;;;;;;;12.94;100.00;96880.03;5071248;28;20478;-72
2022/07/19 03:14:14;;;;;;;15.90;6.03;;;;;;;12.76;100.00;96910.50;5072336;28;20920;-72
2022/07/19 03:16:41;;;;;;;18.33;7.47;;;;;;;12.77;100.00;96894.25;5054657;28;20535;-73
2022/07/19 03:19:08;;;;;;;30.20;7.50;;;;;;;12.85;100.00;96877.50;5092149;28;20952;-72
2022/07/19 03:21:35;;;;;;;11.93;5.47;;;;;;;12.92;100.00;96906.16;5079236;28;20928;-72
2022/07/19 03:24:02;;;;;;;17.60;5.60;;;;;;;12.82;100.00;96875.50;5072247;28;20532;-72
2022/07/19 03:26:29;;;;;;;15.70;6.07;;;;;;;12.94;100.00;96894.09;5054449;28;20577;-72
2022/07/19 03:28:56;;;;;;;18.33;6.80;;;;;;;12.91;100.00;96888.66;5071872;28;20463;-72
2022/07/19 03:31:23;;;;;;;14.70;6.37;;;;;;;13.09;100.00;96918.47;5070515;28;21002;-72
2022/07/19 03:33:49;;;;;;;12.80;5.17;;;;;;;13.09;100.00;96921.13;5071869;28;20446;-72
2022/07/19 03:36:16;;;;;;;7.67;5.00;;;;;;;13.37;100.00;96916.81;5072205;28;20565;-72
2022/07/19 03:38:43;;;;;;;7.30;4.57;;;;;;;13.24;100.00;96899.31;5089352;28;20543;-72
2022/07/19 03:41:09;;;;;;;8.77;4.63;;;;;;;13.55;100.00;96912.09;5068327;28;20494;-72
2022/07/19 03:43:39;;;;;;;8.77;5.40;;;;;;;13.47;100.00;96905.75;5073083;28;20424;-72
2022/07/19 03:46:06;;;;;;;12.90;5.53;;;;;;;13.48;100.00;96917.94;5070911;28;20480;-72
2022/07/19 03:48:32;;;;;;;9.00;5.30;;;;;;;13.52;100.00;96928.69;5055042;28;20498;-72
2022/07/19 03:50:59;;;;;;;7.43;4.20;;;;;;;13.09;100.00;96921.94;5050820;28;20456;-72
2022/07/19 03:53:26;;;;;;;10.00;4.63;;;;;;;13.47;100.00;96932.31;5067636;28;20603;-72
2022/07/19 03:55:52;;;;;;;10.67;4.33;;;;;;;13.21;100.00;96898.06;5054336;28;20490;-72
2022/07/19 03:58:19;;;;;;;9.50;4.90;;;;;;;13.31;100.00;96895.00;5054721;28;20836;-72
2022/07/19 04:00:46;;;;;;;8.73;4.97;;;;;;;13.57;100.00;96929.25;5070284;28;20446;-72
2022/07/19 04:03:12;;;;;;;9.20;5.30;;;;;;;13.57;100.00;96904.56;5068565;28;20460;-72
2022/07/19 04:05:39;;;;;;;9.00;5.20;;;;;;;13.55;100.00;96909.44;5074000;28;20436;-72
2022/07/19 04:08:06;;;;;;;11.73;4.93;;;;;;;13.53;100.00;96920.38;5054646;28;20488;-72
2022/07/19 04:10:33;;;;;;;8.97;5.43;;;;;;;13.47;100.00;96934.19;5072209;28;20468;-72
2022/07/19 04:13:00;;;;;;;12.50;5.70;;;;;;;13.31;100.00;96931.41;5053796;28;20960;-72
2022/07/19 04:15:27;;;;;;;14.17;6.37;;;;;;;13.38;100.00;96899.00;5072434;28;20468;-72
2022/07/19 04:17:53;;;;;;;11.63;6.10;;;;;;;13.57;100.00;96931.13;5071658;28;20513;-72
2022/07/19 04:20:20;;;;;;;8.73;4.70;;;;;;;13.41;100.00;96930.22;5087779;28;20490;-72
2022/07/19 04:22:47;;;;;;;11.10;5.27;;;;;;;13.93;100.00;96933.03;5070019;28;20973;-72
2022/07/19 04:25:14;;;;;;;14.20;4.90;;;;;;;13.51;100.00;96914.63;5070964;28;20761;-72
2022/07/19 04:27:41;;;;;;;10.97;5.30;;;;;;;14.04;100.00;96944.00;5062066;28;21083;-72
2022/07/19 04:30:08;;;;;;;12.33;5.80;;;;;;;14.09;100.00;96939.25;5070882;28;20483;-72
2022/07/19 04:32:35;;;;;;;8.27;5.00;;;;;;;14.08;100.00;96940.34;5063171;28;20547;-72
2022/07/19 04:35:02;;;;;;;17.57;5.50;;;;;;;14.12;100.00;96932.47;5086517;28;20455;-72
2022/07/19 04:37:29;;;;;;;8.00;5.77;;;;;;;14.14;100.00;96944.31;5075700;28;20846;-72
2022/07/19 04:39:55;;;;;;;17.13;5.83;;;;;;;14.22;100.00;96932.03;5087450;28;20890;-72
2022/07/19 04:42:22;;;;;;;10.23;4.47;;;;;;;14.40;100.00;96943.97;5070862;28;20458;-72
2022/07/19 04:44:49;;;;;;;11.03;5.07;;;;;;;14.41;100.00;96910.91;5070423;28;20464;-72
2022/07/19 04:47:15;;;;;;;9.20;6.00;;;;;;;14.49;100.00;96920.69;5071007;28;20440;-72
2022/07/19 04:49:42;;;;;;;7.43;5.13;;;;;;;14.82;100.00;96941.00;5087222;28;20531;-72
2022/07/19 04:52:09;;;;;;;8.93;5.40;;;;;;;14.77;100.00;96928.72;5086065;28;20461;-72
2022/07/19 04:54:36;;;;;;;7.43;5.60;;;;;;;15.15;100.00;96942.66;5081722;28;20479;-72
2022/07/19 04:57:03;;;;;;;5.40;4.53;;;;;;;15.36;100.00;96956.56;5079197;28;20468;-72
2022/07/19 04:59:29;;;;;;;8.13;6.13;;;;;;;15.06;100.00;96948.13;5070095;28;20510;-72
2022/07/19 05:01:56;;;;;;;7.50;4.63;;;;;;;14.98;100.00;96941.06;5063188;28;20446;-73
2022/07/19 05:04:23;;;;;;;13.93;5.30;;;;;;;15.18;100.00;96937.41;5066097;28;20520;-72
2022/07/19 05:06:56;;;;;;;8.90;4.90;;;;;;;15.29;100.00;96927.81;5069460;28;20993;-72
2022/07/19 05:09:27;;;;;;;17.03;5.43;;;;;;;15.50;100.00;96910.84;5086915;28;20460;-72
2022/07/19 05:11:55;;;;;;;6.97;5.13;;;;;;;15.98;100.00;96954.28;5068977;28;21048;-72
2022/07/19 05:14:22;;;;;;;6.83;4.67;;;;;;;15.85;100.00;96935.69;5070186;28;20865;-72
2022/07/19 05:16:49;;;;;;;7.00;5.07;;;;;;;15.90;100.00;96927.47;5064017;28;20499;-73
2022/07/19 05:19:17;;;;;;;8.17;5.40;;;;;;;15.90;100.00;96948.78;5067684;28;20470;-73
2022/07/19 05:21:44;;;;;;;7.87;5.80;;;;;;;16.08;100.00;96914.53;5075539;28;20437;-73
2022/07/19 05:24:10;;;;;;;8.90;5.80;;;;;;;16.27;100.00;96951.16;5072502;28;20493;-73
2022/07/19 05:26:37;;;;;;;6.73;5.43;;;;;;;16.58;100.00;96931.63;5086512;28;20497;-73
2022/07/19 05:29:04;;;;;;;5.50;5.00;;;;;;;17.02;100.00;96932.16;5072127;28;20502;-73
2022/07/19 05:31:31;;;;;;;14.47;5.10;;;;;;;16.82;100.00;96901.97;5068067;28;20465;-73
2022/07/19 05:33:58;;;;;;;5.83;4.87;;;;;;;17.43;100.00;96935.94;5070640;28;20498;-73
2022/07/19 05:36:25;;;;;;;6.70;5.93;;;;;;;17.52;100.00;96957.13;5069653;28;20527;-73
2022/07/19 05:38:53;;;;;;;6.77;5.63;;;;;;;17.59;100.00;96962.56;5068673;28;20449;-73
2022/07/19 05:41:21;;;;;;;8.10;5.77;;;;;;;17.43;100.00;96962.69;5081186;28;20426;-73
2022/07/19 05:43:51;;;;;;;7.23;6.50;;;;;;;16.95;100.00;96957.94;5069624;28;20432;-73
2022/07/19 05:46:19;;;;;;;7.20;6.50;;;;;;;17.09;100.00;96955.53;5057276;28;20449;-73
2022/07/19 05:48:46;;;;;;;7.17;6.00;;;;;;;17.20;100.00;96958.41;5068688;28;20464;-73
2022/07/19 05:51:13;;;;;;;5.47;5.07;;;;;;;17.51;100.00;96952.13;5069039;28;20463;-73
2022/07/19 05:53:41;;;;;;;6.60;5.37;;;;;;;17.69;100.00;96943.31;5075179;28;20475;-73
2022/07/19 05:56:08;;;;;;;10.10;5.30;;;;;;;17.87;100.00;96943.59;5078351;28;20471;-73
2022/07/19 05:58:35;;;;;;;7.63;5.97;;;;;;;17.83;100.00;96923.25;5070015;28;20456;-73
2022/07/19 06:01:17;;;;;;;8.27;5.40;;;;;;;18.36;100.00;96942.03;5069781;28;20487;-73
2022/07/19 06:03:55;;;;;;;13.03;6.20;;;;;;;18.76;100.00;96958.28;5049793;28;20837;-73
2022/07/19 06:06:27;;;;;;;13.80;5.90;;;;;;;19.02;100.00;96951.31;5065776;28;20555;-73
2022/07/19 06:08:54;;;;;;;5.77;5.13;;;;;;;19.58;96.65;96961.91;5069620;28;20475;-73
2022/07/19 06:11:20;;;;;;;7.30;5.10;;;;;;;19.91;92.60;96965.66;5049134;28;21222;-73
2022/07/19 06:13:48;;;;;;;5.87;4.87;;;;;;;20.27;87.88;96972.03;5077846;28;20926;-73
2022/07/19 06:16:16;;;;;;;5.23;4.73;;;;;;;20.52;86.69;96967.63;5076812;28;20570;-73
2022/07/19 06:18:43;;;;;;;5.90;4.93;;;;;;;20.64;86.70;96961.94;5073827;28;20471;-73
2022/07/19 06:21:12;;;;;;;5.53;5.00;;;;;;;20.63;85.91;96973.06;5053487;28;20440;-73
2022/07/19 06:23:41;;;;;;;6.63;5.57;;;;;;;21.09;82.79;96946.38;5057562;28;20460;-73
2022/07/19 06:26:09;;;;;;;4.20;3.90;;;;;;;21.54;76.04;96974.59;5076748;28;20588;-73
2022/07/19 06:28:36;;;;;;;3.97;3.60;;;;;;;21.60;70.84;96968.81;5056797;28;20570;-73
2022/07/19 06:31:08;;;;;;;4.53;3.70;;;;;;;21.63;68.44;96952.66;5057457;28;20476;-73
2022/07/19 06:33:36;;;;;;;4.53;3.47;;;;;;;21.82;65.36;96973.88;5071904;28;20494;-73
2022/07/19 06:36:03;;;;;;;3.93;3.40;;;;;;;22.00;64.28;96954.25;5074467;28;20511;-73
2022/07/19 06:38:29;;;;;;;3.80;3.40;;;;;;;22.15;63.74;96968.50;5072668;28;20535;-73
2022/07/19 06:40:56;;;;;;;6.27;2.93;;;;;;;22.37;60.35;96956.53;5082890;28;20534;-73
2022/07/19 06:43:23;;;;;;;7.13;3.63;;;;;;;22.61;60.09;96936.84;5063178;28;20488;-73
2022/07/19 06:45:49;;;;;;;3.63;3.13;;;;;;;22.63;59.15;96953.41;5072957;28;20483;-73
2022/07/19 06:48:16;;;;;;;5.60;3.40;;;;;;;22.67;58.57;96956.84;5073678;28;20959;-73
2022/07/19 06:50:43;;;;;;;6.57;4.17;;;;;;;22.96;57.94;96941.38;5066375;28;20439;-73
2022/07/19 06:53:10;;;;;;;5.17;3.90;;;;;;;23.09;57.35;96944.38;5075647;28;20863;-73
2022/07/19 06:55:36;;;;;;;7.50;3.30;;;;;;;23.53;56.61;96962.69;5073274;28;20447;-73
2022/07/19 06:58:03;;;;;;;5.23;3.00;;;;;;;23.61;56.65;96957.25;5072314;28;20463;-73
2022/07/19 07:00:30;;;;;;;4.80;3.30;;;;;;;23.23;55.60;96949.72;5076444;28;20451;-73
2022/07/19 07:02:57;;;;;;;3.10;2.80;;;;;;;23.54;55.43;96969.59;5067160;28;20437;-74
2022/07/19 07:05:24;;;;;;;3.60;3.23;;;;;;;23.74;55.76;96934.78;5073025;28;20923;-74
2022/07/19 07:07:52;;;;;;;6.23;3.70;;;;;;;24.11;55.23;96936.78;5071580;28;20987;-74
2022/07/19 07:10:19;;;;;;;3.43;3.13;;;;;;;24.29;53.54;96943.97;5074337;28;20432;-74
2022/07/19 07:12:46;;;;;;;3.83;3.40;;;;;;;24.67;52.53;96969.09;5072013;28;21069;-74
2022/07/19 07:15:13;;;;;;;8.60;3.33;;;;;;;24.28;51.97;96909.97;5084547;28;20447;-74
2022/07/19 07:17:39;;;;;;;3.03;2.83;;;;;;;24.65;51.55;96928.94;5079899;28;20470;-73
2022/07/19 07:20:08;;;;;;;4.23;3.83;;;;;;;25.03;51.58;96972.97;5072688;28;20509;-74
2022/07/19 07:22:35;;;;;;;3.47;3.20;;;;;;;25.00;50.02;96956.75;5072005;28;20498;-74
2022/07/19 07:25:04;;;;;;;11.37;3.70;;;;;;;25.39;48.78;96947.38;5072128;28;20511;-74
2022/07/19 07:27:31;;;;;;;3.63;3.13;;;;;;;25.16;49.36;96954.25;5071569;28;20436;-75
2022/07/19 07:29:57;;;;;;;5.73;3.17;;;;;;;25.46;48.97;96958.09;5052590;28;20934;-74
2022/07/19 07:32:26;;;;;;;2.93;2.60;;;;;;;24.93;49.00;96943.28;5071432;28;20504;-74
2022/07/19 07:34:54;;;;;;;8.07;3.50;;;;;;;25.58;49.42;96965.66;5073772;28;20435;-74
2022/07/19 07:37:21;;;;;;;10.33;2.87;;;;;;;25.91;48.23;96959.41;5051816;28;20449;-74
2022/07/19 07:39:48;;;;;;;6.73;3.20;;;;;;;26.09;47.33;96937.41;5078693;28;20518;-74
2022/07/19 07:42:15;;;;;;;9.70;3.20;;;;;;;26.50;46.90;96966.94;5087110;28;21018;-74
2022/07/19 07:44:42;;;;;;;5.67;3.10;;;;;;;26.13;46.94;96937.34;5072006;28;20876;-74
2022/07/19 07:47:08;;;;;;;4.67;2.50;;;;;;;26.56;47.33;96950.16;5054633;28;20789;-74
2022/07/19 07:49:37;;;;;;;7.10;3.30;;;;;;;26.44;46.54;96943.41;5072030;28;20552;-74
2022/07/19 07:52:04;;;;;;;11.53;3.20;;;;;;;26.90;46.33;96960.78;5085400;28;20507;-74
2022/07/19 07:54:32;;;;;;;3.90;3.03;;;;;;;26.93;46.00;96960.69;5070893;28;20481;-74
2022/07/19 07:56:59;;;;;;;4.90;2.67;;;;;;;26.73;45.88;96933.56;5071688;28;20508;-74
2022/07/19 07:59:26;;;;;;;5.60;3.03;;;;;;;26.37;46.52;96944.31;5071141;28;20468;-74
2022/07/19 08:01:52;;;;;;;3.53;3.23;;;;;;;26.96;45.24;96956.38;5079846;28;20445;-74
2022/07/19 08:04:25;;;;;;;6.67;3.30;;;;;;;26.95;45.22;96933.88;5087651;28;20454;-74
2022/07/19 08:06:53;;;;;;;4.73;2.80;;;;;;;27.29;44.75;96970.84;5082328;28;20773;-74
2022/07/19 08:09:20;;;;;;;11.03;3.27;;;;;;;27.66;44.08;96966.97;5057174;28;20473;-74
2022/07/19 08:11:46;;;;;;;4.93;3.67;;;;;;;27.62;44.29;96955.38;5083155;28;21006;-74
2022/07/19 08:14:13;;;;;;;4.43;2.50;;;;;;;27.74;44.38;96943.09;5072779;28;20986;-74
2022/07/19 08:16:40;;;;;;;7.23;3.60;;;;;;;27.64;43.80;96948.34;5081641;28;20830;-74
2022/07/19 08:19:07;;;;;;;3.53;3.23;;;;;;;28.10;42.82;96943.78;5076235;28;20464;-74
2022/07/19 08:21:33;;;;;;;6.70;3.43;;;;;;;28.29;43.64;96952.25;5071462;28;20433;-74
2022/07/19 08:24:00;;;;;;;9.53;3.20;;;;;;;28.35;42.46;96935.00;5072000;28;20443;-74
2022/07/19 08:26:27;;;;;;;4.13;2.40;;;;;;;28.12;42.92;96949.53;5071410;28;20472;-74
2022/07/19 08:28:54;;;;;;;3.50;3.00;;;;;;;28.63;42.04;96952.53;5071921;28;20530;-74
2022/07/19 08:31:20;;;;;;;5.63;3.60;;;;;;;28.35;42.98;96924.13;5062231;28;20903;-74
2022/07/19 08:33:47;;;;;;;5.17;3.17;;;;;;;28.35;42.54;96924.13;5057499;28;20436;-74
2022/07/19 08:36:14;;;;;;;5.27;3.60;;;;;;;28.46;41.78;96913.72;5060092;28;20430;-75
2022/07/19 08:38:41;;;;;;;4.10;2.73;;;;;;;28.80;40.95;96926.78;5072010;28;20502;-75
2022/07/19 08:41:08;;;;;;;4.50;2.93;;;;;;;28.85;40.14;96933.66;5076878;28;20460;-74
2022/07/19 08:43:35;;;;;;;4.50;3.20;;;;;;;28.94;40.52;96916.69;5076225;28;20519;-75
2022/07/19 08:46:03;;;;;;;7.50;2.83;;;;;;;29.09;40.52;96929.47;5076373;28;20437;-75
2022/07/19 08:48:34;;;;;;;4.23;3.07;;;;;;;29.23;38.74;96936.44;5081284;28;21065;-75
2022/07/19 08:51:10;;;;;;;4.67;2.80;;;;;;;29.59;38.63;96936.16;5071176;28;20455;-75
2022/07/19 08:53:40;;;;;;;5.10;3.13;;;;;;;29.77;38.67;96919.25;5077409;28;20487;-75
2022/07/19 08:57:57;;;;;;;2.40;2.20;;;;;;;29.97;39.05;96911.56;5090598;28;20450;-75
2022/07/19 08:58:54;;;;;;;3.53;3.03;;;;;;;29.38;38.16;96921.22;5080355;28;20467;-75
2022/07/19 09:01:21;;;;;;;3.00;2.80;;;;;;;28.87;38.82;96923.13;5074475;28;20512;-75
2022/07/19 09:04:06;;;;;;;10.33;2.33;;;;;;;29.22;38.88;96929.47;5078121;28;20948;-75
2022/07/19 09:06:45;;;;;;;3.77;2.53;;;;;;;29.33;38.00;96931.88;5071301;28;20860;-75
2022/07/19 09:09:13;;;;;;;3.33;2.40;;;;;;;29.39;37.42;96933.66;5070649;28;20491;-75
2022/07/19 09:11:50;;;;;;;3.00;2.20;;;;;;;29.44;36.31;96927.66;5072022;28;20774;-75
2022/07/19 09:14:22;;;;;;;4.17;2.30;;;;;;;29.82;36.59;96926.88;5069843;28;20510;-75
2022/07/19 09:17:03;;;;;;;4.60;2.40;;;;;;;30.16;34.87;96906.31;5070802;28;20936;-75
2022/07/19 09:19:37;;;;;;;2.57;2.37;;;;;;;30.07;35.61;96887.16;5069499;28;20547;-75
2022/07/19 09:22:29;;;;;;;2.30;2.20;;;;;;;30.12;34.73;96922.03;5072279;28;20441;-75
2022/07/19 09:24:55;;;;;;;2.53;2.33;;;;;;;30.26;34.73;96891.53;5056751;28;20502;-75
2022/07/19 09:27:25;;;;;;;4.53;2.73;;;;;;;29.92;32.79;96892.28;5053648;28;20466;-75
2022/07/19 09:29:56;;;;;;;2.37;2.17;;;;;;;30.36;33.08;96903.31;5067483;28;20449;-75
2022/07/19 09:32:24;;;;;;;4.80;2.70;;;;;;;30.23;32.79;96890.47;5087450;28;20470;-75
2022/07/19 09:34:55;;;;;;;5.50;1.83;;;;;;;30.14;32.37;96914.19;5071934;28;20509;-75
2022/07/19 09:37:28;;;;;;;5.50;2.60;;;;;;;30.62;32.84;96912.91;5069959;28;20420;-75
2022/07/19 09:39:59;;;;;;;2.80;2.40;;;;;;;30.86;32.68;96916.72;5053231;28;20947;-75
2022/07/19 09:42:43;;;;;;;3.10;2.23;;;;;;;30.38;32.07;96920.00;5077591;28;20450;-75
2022/07/19 09:45:15;;;;;;;3.30;2.93;;;;;;;30.26;31.75;96919.59;5070402;28;20429;-75
2022/07/19 09:47:44;;;;;;;2.20;2.00;;;;;;;30.37;31.88;96915.75;5068172;28;21063;-75
2022/07/19 09:50:16;;;;;;;3.13;2.83;;;;;;;30.90;32.23;96922.06;5069994;28;20815;-75
2022/07/19 09:52:46;;;;;;;2.63;2.43;;;;;;;30.89;32.60;96917.81;5070021;28;20867;-75
2022/07/19 09:55:17;;;;;;;2.57;2.17;;;;;;;30.53;32.78;96905.41;5070456;28;20988;-75
2022/07/19 09:57:47;;;;;;;4.73;2.80;;;;;;;31.06;32.51;96893.75;5057290;28;20461;-75
2022/07/19 10:00:16;;;;;;;3.33;2.70;;;;;;;30.71;32.60;96906.75;5070140;28;20428;-76
2022/07/19 10:02:49;;;;;;;2.50;2.30;;;;;;;30.71;33.25;96912.22;5051381;28;20483;-75
2022/07/19 10:05:16;;;;;;;4.03;2.57;;;;;;;30.94;31.59;96919.19;5075145;28;20432;-75
2022/07/19 10:07:43;;;;;;;4.30;2.03;;;;;;;30.80;31.72;96920.47;5083220;28;20451;-75
2022/07/19 10:10:12;;;;;;;3.70;2.40;;;;;;;31.00;31.50;96915.44;5059816;28;20474;-75
2022/07/19 10:12:41;;;;;;;2.53;2.27;;;;;;;30.84;31.04;96910.94;5068989;28;20486;-75
2022/07/19 10:15:10;;;;;;;5.17;2.20;;;;;;;31.00;31.07;96888.13;5070639;28;20446;-75
2022/07/19 10:17:41;;;;;;;2.53;2.33;;;;;;;31.51;30.29;96906.84;5071648;28;20496;-75
2022/07/19 10:20:09;;;;;;;2.60;2.37;;;;;;;31.40;30.32;96892.88;5070789;28;20426;-75
2022/07/19 10:22:39;;;;;;;3.63;2.30;;;;;;;31.25;30.12;96900.06;5085924;28;21327;-75
2022/07/19 10:25:13;;;;;;;3.00;2.70;;;;;;;31.24;30.65;96899.31;5057253;28;20467;-75
2022/07/19 10:27:50;;;;;;;2.83;2.30;;;;;;;31.16;30.63;96896.09;5075678;28;20871;-75
2022/07/19 10:30:20;;;;;;;4.53;2.30;;;;;;;31.02;30.25;96890.41;5071095;28;20439;-75
2022/07/19 10:32:49;;;;;;;4.53;2.73;;;;;;;31.17;30.01;96889.41;5075199;28;21001;-75
2022/07/19 10:35:16;;;;;;;6.33;2.63;;;;;;;31.65;30.20;96891.84;5070379;28;20490;-75
2022/07/19 10:37:48;;;;;;;2.80;2.33;;;;;;;31.68;29.39;96877.28;5052891;28;20498;-75
2022/07/19 10:40:42;;;;;;;4.40;2.60;;;;;;;31.41;29.29;96888.94;5068800;28;20413;-75
2022/07/19 10:43:09;;;;;;;3.80;3.33;;;;;;;31.82;29.04;96893.16;5068925;28;20443;-75
2022/07/19 10:45:38;;;;;;;3.33;2.17;;;;;;;31.73;28.55;96872.00;5052935;28;21019;-75
2022/07/19 10:48:10;;;;;;;2.70;2.50;;;;;;;31.85;28.84;96867.63;5067923;28;21006;-75
2022/07/19 10:51:00;;;;;;;5.60;2.80;;;;;;;32.46;28.41;96885.00;5069516;28;20723;-75
2022/07/19 10:53:39;;;;;;;3.23;2.50;;;;;;;32.96;29.02;96884.75;5025160;28;20519;-75
2022/07/19 10:56:24;;;;;;;9.10;2.93;;;;;;;32.68;27.71;96890.28;5065930;28;20419;-75
2022/07/19 10:58:53;;;;;;;3.10;2.60;;;;;;;32.47;27.11;96880.28;5080049;28;20551;-75
2022/07/19 11:01:22;;;;;;;2.10;1.90;;;;;;;32.10;27.98;96852.13;5072317;28;20467;-75
2022/07/19 11:03:51;;;;;;;2.60;2.40;;;;;;;32.64;27.45;96870.50;5070797;28;20509;-75
2022/07/19 11:06:24;;;;;;;2.60;2.40;;;;;;;32.12;28.91;96871.59;5088968;28;20473;-75
2022/07/19 11:08:56;;;;;;;7.63;2.80;;;;;;;32.26;28.13;96882.69;5080316;28;20490;-75
2022/07/19 11:11:26;;;;;;;2.80;2.50;;;;;;;32.31;28.84;96873.88;5070082;28;20873;-76
2022/07/19 11:13:55;;;;;;;4.90;2.47;;;;;;;32.13;28.13;96862.16;5068517;28;20455;-75
2022/07/19 11:16:25;;;;;;;2.50;2.30;;;;;;;32.36;27.66;96864.31;5072539;28;20548;-75
2022/07/19 11:19:01;;;;;;;3.83;2.23;;;;;;;32.86;27.39;96851.94;5065638;28;20995;-75
2022/07/19 11:21:32;;;;;;;3.30;2.73;;;;;;;32.79;27.41;96852.22;5089720;28;20977;-75
2022/07/19 11:24:04;;;;;;;2.67;2.20;;;;;;;32.23;28.59;96850.75;5080806;28;20437;-75
2022/07/19 11:26:38;;;;;;;3.03;2.73;;;;;;;32.49;28.41;96855.94;5072445;28;20815;-75
2022/07/19 11:29:12;;;;;;;2.30;2.10;;;;;;;33.07;28.05;96841.94;5072867;28;20456;-75
2022/07/19 11:31:45;;;;;;;3.00;2.27;;;;;;;33.46;27.84;96851.06;5072556;28;20562;-75